To NAV CANADA Home Page Login to a new session Search on AWWS site Feedback and Comments Disclaimer Vers la page française équivalente Tips FAQ What's new on the site To the Forecasts and Observations / NOTAM section To "File a Flight Plan" website Publications and other links Update of the User's profile FIC Telephone Numbers My Weather Data Folder Route Weather Data Regional Weather Data Local Weather Data To the Forecasts and Observations / NOTAM section
Request Generated 04/21/2014 at 00:03:24 UTC . Weather information available at that time is displayed.

METAR/TAF

COMOX/BC    

METAR CYQQ 202300Z CCA 14014KT 15SM -SHRA FEW020 BKN055 OVC080 10/07 A3018 RMK SC1SC5AC2 PCPN VRY LGT SLP221=
METAR CYQQ 202300Z 14014KT 20SM -SHRA FEW020 BKN055 OVC080 10/07 A3018 RMK SC1SC5AC2 PCPN VRY LGT SLP221=
METAR CYQQ 202200Z 14013G19KT 15SM -SHRA FEW015 BKN043 OVC080 09/07 A3019 RMK SC2SC5AS2 SLP226=
METAR CYQQ 202100Z 14020KT 15SM FEW025 BKN041 OVC100 10/07 A3020 RMK SC2SC5AS2 SLP228=

TAF CYQQ 202339Z 2100/2124 14012G22KT P6SM -SHRA SCT020 BKN040 TEMPO
2100/2112 BKN020
FM211200 VRB03KT P6SM SCT020 BKN040
FM211900 VRB03KT P6SM SCT040
RMK NXT FCST BY 210600Z=
Your time UTC time
Weather data provided by Environment Canada and NAV CANADA